Time,TemperatureF,DewpointF,PressureIn,WindDirection,WindDirectionDegrees,WindSpeedMPH,WindSpeedGustMPH,Humidity,HourlyPrecipIn,Conditions,Clouds,dailyrainin,SolarRadiationWatts/m^2,SoftwareType,DateUTC
2013-07-20 00:02:00,72.0,70.0,-100.00,SE,140,0.0,2.0,92,0.00,,,0.01,0.000000,,2013-07-20 05:02:00,
2013-07-20 00:32:00,72.0,70.0,-100.00,West,264,0.0,0.0,92,0.00,,,0.01,0.000000,,2013-07-20 05:32:00,
2013-07-20 00:52:00,72.0,70.0,-100.00,West,264,0.0,0.0,92,0.00,,,0.01,0.000000,,2013-07-20 05:52:00,
2013-07-20 01:01:00,72.0,70.0,-100.00,West,264,0.0,0.0,92,0.00,,,0.01,0.000000,,2013-07-20 06:01:00,
2013-07-20 01:32:00,71.0,69.0,-100.00,SW,220,0.0,0.0,93,0.00,,,0.00,0.000000,,2013-07-20 06:32:00,
2013-07-20 01:43:00,71.0,69.0,-100.00,SW,220,0.0,0.0,93,0.00,,,0.00,0.000000,,2013-07-20 06:43:00,
2013-07-20 01:52:00,71.0,69.0,-100.00,SW,220,0.0,0.0,93,0.00,,,0.00,0.000000,,2013-07-20 06:52:00,
2013-07-20 02:01:00,71.0,69.0,-100.00,SW,220,0.0,0.0,93,0.00,,,0.00,0.000000,,2013-07-20 07:01:00,
2013-07-20 02:33:00,70.0,68.0,-100.00,SW,231,0.0,0.0,93,0.00,,,0.00,0.000000,,2013-07-20 07:33:00,
2013-07-20 02:44:00,70.0,68.0,-100.00,SW,231,0.0,0.0,93,0.00,,,0.00,0.000000,,2013-07-20 07:44:00,
2013-07-20 02:54:00,70.0,68.0,-100.00,SW,231,0.0,0.0,93,0.00,,,0.00,0.000000,,2013-07-20 07:54:00,
2013-07-20 03:01:00,70.0,68.0,-100.00,SW,231,0.0,0.0,93,0.00,,,0.00,0.000000,,2013-07-20 08:01:00,
2013-07-20 03:32:00,71.0,69.0,-100.00,NE,38,0.0,0.0,93,0.00,,,0.00,0.000000,,2013-07-20 08:32:00,
2013-07-20 03:44:00,71.0,69.0,-100.00,NE,38,0.0,0.0,93,0.00,,,0.00,0.000000,,2013-07-20 08:44:00,
2013-07-20 03:52:00,71.0,69.0,-100.00,NE,38,0.0,0.0,93,0.00,,,0.00,0.000000,,2013-07-20 08:52:00,
2013-07-20 04:02:00,71.0,69.0,-100.00,NE,38,0.0,0.0,93,0.00,,,0.00,0.000000,,2013-07-20 09:02:00,
2013-07-20 04:43:00,70.0,68.0,-100.00,WSW,253,0.0,0.0,94,0.00,,,0.00,0.000000,,2013-07-20 09:43:00,
2013-07-20 04:53:00,70.0,68.0,-100.00,WSW,253,0.0,0.0,94,0.00,,,0.00,0.000000,,2013-07-20 09:53:00,
2013-07-20 05:01:00,70.0,68.0,-100.00,WSW,253,0.0,0.0,94,0.00,,,0.00,0.000000,,2013-07-20 10:01:00,
2013-07-20 05:32:00,69.0,67.0,-100.00,WSW,247,0.0,2.0,94,0.00,,,0.00,0.000000,,2013-07-20 10:32:00,
2013-07-20 05:42:00,69.0,67.0,-100.00,WSW,247,0.0,2.0,94,0.00,,,0.00,0.000000,,2013-07-20 10:42:00,
2013-07-20 05:52:00,69.0,67.0,-100.00,WSW,247,0.0,2.0,94,0.00,,,0.00,0.000000,,2013-07-20 10:52:00,
2013-07-20 06:01:00,69.0,67.0,-100.00,WSW,247,0.0,2.0,94,0.00,,,0.00,0.000000,,2013-07-20 11:01:00,
2013-07-20 06:32:00,69.0,67.0,-100.00,NW,323,0.0,0.0,94,0.00,,,0.00,1.000000,,2013-07-20 11:32:00,
2013-07-20 06:43:00,69.0,67.0,-100.00,NW,323,0.0,0.0,94,0.00,,,0.00,1.000000,,2013-07-20 11:43:00,
2013-07-20 06:52:00,69.0,67.0,-100.00,NW,323,0.0,0.0,94,0.00,,,0.00,1.000000,,2013-07-20 11:52:00,
2013-07-20 07:01:00,69.0,67.0,-100.00,NW,323,0.0,0.0,94,0.00,,,0.00,1.000000,,2013-07-20 12:01:00,
2013-07-20 07:32:00,72.0,70.0,-100.00,NNW,328,0.0,3.0,94,0.00,,,0.00,34.000000,,2013-07-20 12:32:00,
2013-07-20 07:52:00,72.0,70.0,-100.00,NNW,328,0.0,3.0,94,0.00,,,0.00,34.000000,,2013-07-20 12:52:00,
2013-07-20 08:01:00,72.0,70.0,-100.00,NNW,328,0.0,3.0,94,0.00,,,0.00,34.000000,,2013-07-20 13:01:00,
2013-07-20 08:32:00,78.0,73.0,-100.00,NNE,27,3.0,4.0,85,0.00,,,0.00,190.000000,,2013-07-20 13:32:00,
2013-07-20 08:43:00,78.0,73.0,-100.00,NNE,27,3.0,4.0,85,0.00,,,0.00,190.000000,,2013-07-20 13:43:00,
2013-07-20 08:53:00,78.0,73.0,-100.00,NNE,27,3.0,4.0,85,0.00,,,0.00,190.000000,,2013-07-20 13:53:00,
2013-07-20 09:02:00,78.0,73.0,-100.00,NNE,27,3.0,4.0,85,0.00,,,0.00,190.000000,,2013-07-20 14:02:00,
2013-07-20 09:32:00,82.0,74.0,-100.00,ENE,71,1.0,5.0,78,0.00,,,0.00,351.000000,,2013-07-20 14:32:00,
2013-07-20 09:43:00,82.0,74.0,-100.00,ENE,71,1.0,5.0,78,0.00,,,0.00,351.000000,,2013-07-20 14:43:00,
2013-07-20 09:53:00,82.0,74.0,-100.00,ENE,71,1.0,5.0,78,0.00,,,0.00,351.000000,,2013-07-20 14:53:00,
2013-07-20 10:01:00,82.0,74.0,-100.00,ENE,71,1.0,5.0,78,0.00,,,0.00,351.000000,,2013-07-20 15:01:00,
2013-07-20 10:33:00,85.0,74.0,-100.00,East,83,3.0,6.0,69,0.00,,,0.00,515.000000,,2013-07-20 15:33:00,
2013-07-20 10:44:00,85.0,74.0,-100.00,East,83,3.0,6.0,69,0.00,,,0.00,515.000000,,2013-07-20 15:44:00,
2013-07-20 10:53:00,85.0,74.0,-100.00,East,83,3.0,6.0,69,0.00,,,0.00,515.000000,,2013-07-20 15:53:00,
2013-07-20 11:01:00,85.0,74.0,-100.00,East,83,3.0,6.0,69,0.00,,,0.00,515.000000,,2013-07-20 16:01:00,
2013-07-20 11:32:00,86.0,72.0,-100.00,ENE,69,4.0,8.0,64,0.00,,,0.00,639.000000,,2013-07-20 16:32:00,
2013-07-20 11:44:00,86.0,72.0,-100.00,ENE,69,4.0,8.0,64,0.00,,,0.00,639.000000,,2013-07-20 16:44:00,
2013-07-20 11:52:00,86.0,72.0,-100.00,ENE,69,4.0,8.0,64,0.00,,,0.00,639.000000,,2013-07-20 16:52:00,
2013-07-20 12:02:00,86.0,72.0,-100.00,ENE,69,4.0,8.0,64,0.00,,,0.00,639.000000,,2013-07-20 17:02:00,
2013-07-20 12:32:00,87.0,70.0,-100.00,NE,53,3.0,8.0,58,0.00,,,0.00,660.000000,,2013-07-20 17:32:00,
2013-07-20 12:43:00,87.0,70.0,-100.00,NE,53,3.0,8.0,58,0.00,,,0.00,660.000000,,2013-07-20 17:43:00,
2013-07-20 12:53:00,87.0,70.0,-100.00,NE,53,3.0,8.0,58,0.00,,,0.00,660.000000,,2013-07-20 17:53:00,
2013-07-20 13:01:00,87.0,70.0,-100.00,NE,53,3.0,8.0,58,0.00,,,0.00,660.000000,,2013-07-20 18:01:00,
2013-07-20 13:37:00,89.0,72.0,-100.00,NE,53,4.0,6.0,57,0.00,,,0.00,675.000000,,2013-07-20 18:37:00,
2013-07-20 13:47:00,89.0,72.0,-100.00,NE,53,4.0,6.0,57,0.00,,,0.00,675.000000,,2013-07-20 18:47:00,
2013-07-20 13:59:00,89.0,72.0,-100.00,NE,53,4.0,6.0,57,0.00,,,0.00,675.000000,,2013-07-20 18:59:00,
2013-07-20 14:05:00,89.0,72.0,-100.00,NE,53,4.0,6.0,57,0.00,,,0.00,675.000000,,2013-07-20 19:05:00,
2013-07-20 14:35:00,92.0,71.0,-100.00,ESE,103,2.0,7.0,51,0.00,,,0.00,795.000000,,2013-07-20 19:35:00,
2013-07-20 14:44:00,92.0,71.0,-100.00,ESE,103,2.0,7.0,51,0.00,,,0.00,795.000000,,2013-07-20 19:44:00,
2013-07-20 14:56:00,92.0,71.0,-100.00,ESE,103,2.0,7.0,51,0.00,,,0.00,795.000000,,2013-07-20 19:56:00,
2013-07-20 15:06:00,92.0,71.0,-100.00,ESE,103,2.0,7.0,51,0.00,,,0.00,795.000000,,2013-07-20 20:06:00,
2013-07-20 15:35:00,88.0,74.0,-100.00,SSW,200,0.0,8.0,63,0.00,,,0.00,276.000000,,2013-07-20 20:35:00,
2013-07-20 15:47:00,88.0,74.0,-100.00,SSW,200,0.0,8.0,63,0.00,,,0.00,276.000000,,2013-07-20 20:47:00,
2013-07-20 15:58:00,88.0,74.0,-100.00,SSW,200,0.0,8.0,63,0.00,,,0.00,276.000000,,2013-07-20 20:58:00,
2013-07-20 16:05:00,88.0,74.0,-100.00,SSW,200,0.0,8.0,63,0.00,,,0.00,276.000000,,2013-07-20 21:05:00,
2013-07-20 16:36:00,86.0,75.0,-100.00,South,187,0.0,0.0,70,0.00,,,0.00,205.000000,,2013-07-20 21:36:00,
2013-07-20 16:48:00,86.0,75.0,-100.00,South,187,0.0,0.0,70,0.00,,,0.00,205.000000,,2013-07-20 21:48:00,
2013-07-20 16:56:00,86.0,75.0,-100.00,South,187,0.0,0.0,70,0.00,,,0.00,205.000000,,2013-07-20 21:56:00,
2013-07-20 17:06:00,86.0,75.0,-100.00,South,187,0.0,0.0,70,0.00,,,0.00,205.000000,,2013-07-20 22:06:00,
2013-07-20 19:45:00,82.0,72.0,-100.00,SW,227,2.0,9.0,73,-99.99,,,0.00,127.000000,,2013-07-21 00:45:00,
2013-07-20 19:56:00,82.0,72.0,-100.00,SW,227,2.0,9.0,73,-99.99,,,0.00,127.000000,,2013-07-21 00:56:00,
2013-07-20 20:06:00,82.0,72.0,-100.00,SW,227,2.0,9.0,73,-99.99,,,0.00,127.000000,,2013-07-21 01:06:00,
2013-07-20 20:37:00,77.0,70.0,-100.00,SSW,193,1.0,7.0,79,0.00,,,0.00,23.000000,,2013-07-21 01:37:00,
2013-07-20 20:49:00,-999.0,-99.9,-100.00,SSW,193,1.0,7.0,-999,-99.99,,,-99.99,23.000000,,2013-07-21 01:49:00,
2013-07-20 20:59:00,77.0,70.0,-100.00,SSW,193,1.0,7.0,79,0.00,,,0.00,23.000000,,2013-07-21 01:59:00,
2013-07-20 21:05:00,77.0,70.0,-100.00,SSW,193,1.0,7.0,79,0.00,,,0.00,23.000000,,2013-07-21 02:05:00,
2013-07-20 21:38:00,75.0,71.0,-100.00,SSW,212,1.0,3.0,86,0.00,,,0.00,0.000000,,2013-07-21 02:38:00,
2013-07-20 21:46:00,75.0,71.0,-100.00,SSW,212,1.0,3.0,86,0.00,,,0.00,0.000000,,2013-07-21 02:46:00,
2013-07-20 21:58:00,75.0,71.0,-100.00,SSW,212,1.0,3.0,86,0.00,,,0.00,0.000000,,2013-07-21 02:58:00,
2013-07-20 22:04:00,75.0,71.0,-100.00,SSW,212,1.0,3.0,86,0.00,,,0.00,0.000000,,2013-07-21 03:04:00,
2013-07-20 22:37:00,74.0,70.0,-100.00,SSW,195,1.0,3.0,88,0.00,,,0.00,0.000000,,2013-07-21 03:37:00,
2013-07-20 22:47:00,74.0,70.0,-100.00,SSW,195,1.0,3.0,88,0.00,,,0.00,0.000000,,2013-07-21 03:47:00,
2013-07-20 23:00:00,74.0,70.0,-100.00,SSW,195,1.0,3.0,88,0.00,,,0.00,0.000000,,2013-07-21 04:00:00,
2013-07-20 23:01:00,74.0,70.0,-100.00,SSW,195,1.0,3.0,88,0.00,,,0.00,0.000000,,2013-07-21 04:01:00,
2013-07-20 23:32:00,73.0,70.0,-100.00,SE,142,0.0,3.0,90,0.00,,,0.00,0.000000,,2013-07-21 04:32:00,
2013-07-20 23:43:00,73.0,70.0,-100.00,SE,142,0.0,3.0,90,0.00,,,0.00,0.000000,,2013-07-21 04:43:00,
2013-07-20 23:53:00,73.0,70.0,-100.00,SE,142,0.0,3.0,90,0.00,,,0.00,0.000000,,2013-07-21 04:53:00,